sensor_id;sensor_type;location;lat;lon;timestamp;pressure;altitude;pressure_sealevel;temperature;humidity
75298;BME280;63896;45.990;18.688;2023-03-02T00:02:03;101216.94;;;5.73;76.21
75298;BME280;63896;45.990;18.688;2023-03-02T00:05:09;101221.56;;;5.71;76.48
75298;BME280;63896;45.990;18.688;2023-03-02T00:08:17;101226.63;;;5.72;75.87
75298;BME280;63896;45.990;18.688;2023-03-02T00:11:20;101221.69;;;5.69;76.11
75298;BME280;63896;45.990;18.688;2023-03-02T00:14:23;101226.13;;;5.69;76.89
75298;BME280;63896;45.990;18.688;2023-03-02T00:17:26;101226.81;;;5.71;75.46
75298;BME280;63896;45.990;18.688;2023-03-02T00:20:32;101234.03;;;5.69;75.64
75298;BME280;63896;45.990;18.688;2023-03-02T00:23:37;101234.69;;;5.63;76.23
75298;BME280;63896;45.990;18.688;2023-03-02T00:26:40;101233.50;;;5.57;77.10
75298;BME280;63896;45.990;18.688;2023-03-02T00:29:43;101231.34;;;5.53;77.35
75298;BME280;63896;45.990;18.688;2023-03-02T00:32:47;101236.81;;;5.51;77.29
75298;BME280;63896;45.990;18.688;2023-03-02T00:35:50;101236.44;;;5.46;76.75
75298;BME280;63896;45.990;18.688;2023-03-02T00:38:53;101221.97;;;5.42;76.53
75298;BME280;63896;45.990;18.688;2023-03-02T00:41:56;101223.13;;;5.40;76.41
75298;BME280;63896;45.990;18.688;2023-03-02T00:44:59;101226.06;;;5.37;76.88
75298;BME280;63896;45.990;18.688;2023-03-02T00:48:03;101228.03;;;5.35;77.06
75298;BME280;63896;45.990;18.688;2023-03-02T00:51:07;101226.38;;;5.34;76.59
75298;BME280;63896;45.990;18.688;2023-03-02T00:54:10;101224.88;;;5.31;76.75
75298;BME280;63896;45.990;18.688;2023-03-02T00:57:12;101219.31;;;5.34;75.85
75298;BME280;63896;45.990;18.688;2023-03-02T01:00:15;101216.31;;;5.29;76.09
75298;BME280;63896;45.990;18.688;2023-03-02T01:03:22;101216.31;;;5.29;75.19
75298;BME280;63896;45.990;18.688;2023-03-02T01:06:25;101223.41;;;5.28;75.18
75298;BME280;63896;45.990;18.688;2023-03-02T01:09:28;101211.88;;;5.29;75.32
75298;BME280;63896;45.990;18.688;2023-03-02T01:12:32;101195.81;;;5.33;74.17
75298;BME280;63896;45.990;18.688;2023-03-02T01:15:35;101196.94;;;5.30;74.43
75298;BME280;63896;45.990;18.688;2023-03-02T01:18:38;101184.59;;;5.31;74.63
75298;BME280;63896;45.990;18.688;2023-03-02T01:21:42;101181.97;;;5.31;74.87
75298;BME280;63896;45.990;18.688;2023-03-02T01:24:45;101182.78;;;5.23;74.89
75298;BME280;63896;45.990;18.688;2023-03-02T01:27:48;101179.16;;;5.24;75.04
75298;BME280;63896;45.990;18.688;2023-03-02T01:30:51;101183.56;;;5.15;75.21
75298;BME280;63896;45.990;18.688;2023-03-02T01:33:55;101179.59;;;5.11;74.80
75298;BME280;63896;45.990;18.688;2023-03-02T01:36:58;101184.22;;;5.09;75.62
75298;BME280;63896;45.990;18.688;2023-03-02T01:40:02;101178.13;;;5.09;76.00
75298;BME280;63896;45.990;18.688;2023-03-02T01:43:12;101177.31;;;5.08;75.66
75298;BME280;63896;45.990;18.688;2023-03-02T01:49:27;101176.63;;;5.06;76.63
75298;BME280;63896;45.990;18.688;2023-03-02T01:52:35;101174.81;;;5.07;75.99
75298;BME280;63896;45.990;18.688;2023-03-02T01:55:41;101158.72;;;5.10;76.16
75298;BME280;63896;45.990;18.688;2023-03-02T01:58:47;101160.38;;;5.11;76.69
75298;BME280;63896;45.990;18.688;2023-03-02T02:01:54;101155.94;;;5.11;76.76
75298;BME280;63896;45.990;18.688;2023-03-02T02:04:58;101158.56;;;5.11;76.99
75298;BME280;63896;45.990;18.688;2023-03-02T02:08:01;101168.09;;;5.04;77.01
75298;BME280;63896;45.990;18.688;2023-03-02T02:11:05;101162.50;;;5.07;78.11
75298;BME280;63896;45.990;18.688;2023-03-02T02:14:08;101165.78;;;5.01;78.44
75298;BME280;63896;45.990;18.688;2023-03-02T02:17:12;101166.56;;;4.94;78.53
75298;BME280;63896;45.990;18.688;2023-03-02T02:26:32;101168.06;;;4.96;78.93
75298;BME280;63896;45.990;18.688;2023-03-02T02:29:42;101162.28;;;4.93;78.81
75298;BME280;63896;45.990;18.688;2023-03-02T02:32:51;101160.81;;;4.90;79.19
75298;BME280;63896;45.990;18.688;2023-03-02T02:36:01;101156.06;;;4.94;79.59
75298;BME280;63896;45.990;18.688;2023-03-02T02:39:07;101162.75;;;4.88;79.47
75298;BME280;63896;45.990;18.688;2023-03-02T02:42:17;101157.69;;;4.95;79.46
75298;BME280;63896;45.990;18.688;2023-03-02T02:45:23;101158.31;;;4.89;79.38
75298;BME280;63896;45.990;18.688;2023-03-02T02:48:29;101155.00;;;4.87;79.98
75298;BME280;63896;45.990;18.688;2023-03-02T02:51:34;101159.16;;;4.89;79.54
75298;BME280;63896;45.990;18.688;2023-03-02T02:54:37;101143.19;;;4.91;79.60
75298;BME280;63896;45.990;18.688;2023-03-02T02:57:40;101146.50;;;4.93;79.66
75298;BME280;63896;45.990;18.688;2023-03-02T03:00:44;101152.28;;;4.96;79.23
75298;BME280;63896;45.990;18.688;2023-03-02T03:03:59;101146.50;;;4.93;79.79
75298;BME280;63896;45.990;18.688;2023-03-02T03:07:04;101150.28;;;4.90;79.20
75298;BME280;63896;45.990;18.688;2023-03-02T03:13:18;101144.50;;;4.78;80.44
75298;BME280;63896;45.990;18.688;2023-03-02T03:16:22;101151.41;;;4.88;80.24
75298;BME280;63896;45.990;18.688;2023-03-02T03:19:29;101138.16;;;4.97;79.54
75298;BME280;63896;45.990;18.688;2023-03-02T03:22:35;101135.16;;;4.92;79.83
75298;BME280;63896;45.990;18.688;2023-03-02T03:25:40;101140.75;;;4.89;79.56
75298;BME280;63896;45.990;18.688;2023-03-02T03:28:44;101145.63;;;4.76;79.98
75298;BME280;63896;45.990;18.688;2023-03-02T03:31:47;101139.50;;;4.67;80.50
75298;BME280;63896;45.990;18.688;2023-03-02T03:34:50;101144.25;;;4.64;80.78
75298;BME280;63896;45.990;18.688;2023-03-02T03:38:05;101143.16;;;4.74;80.46
75298;BME280;63896;45.990;18.688;2023-03-02T03:41:08;101137.88;;;4.66;80.38
75298;BME280;63896;45.990;18.688;2023-03-02T03:44:13;101144.59;;;4.69;80.99
75298;BME280;63896;45.990;18.688;2023-03-02T03:47:17;101148.56;;;4.73;80.45
75298;BME280;63896;45.990;18.688;2023-03-02T03:50:21;101145.56;;;4.68;81.70
75298;BME280;63896;45.990;18.688;2023-03-02T03:53:25;101138.97;;;4.64;80.53
75298;BME280;63896;45.990;18.688;2023-03-02T03:56:31;101135.69;;;4.62;80.49
75298;BME280;63896;45.990;18.688;2023-03-02T03:59:35;101132.72;;;4.57;81.38
75298;BME280;63896;45.990;18.688;2023-03-02T04:02:40;101130.59;;;4.60;81.10
75298;BME280;63896;45.990;18.688;2023-03-02T04:05:45;101129.66;;;4.69;79.81
75298;BME280;63896;45.990;18.688;2023-03-02T04:08:49;101132.06;;;4.55;80.08
75298;BME280;63896;45.990;18.688;2023-03-02T04:11:53;101135.00;;;4.52;80.13
75298;BME280;63896;45.990;18.688;2023-03-02T04:14:58;101139.25;;;4.53;80.46
75298;BME280;63896;45.990;18.688;2023-03-02T04:18:01;101131.22;;;4.54;81.19
75298;BME280;63896;45.990;18.688;2023-03-02T04:21:06;101131.56;;;4.51;82.44
75298;BME280;63896;45.990;18.688;2023-03-02T04:24:10;101136.81;;;4.51;81.95
75298;BME280;63896;45.990;18.688;2023-03-02T04:27:14;101139.91;;;4.47;82.92
75298;BME280;63896;45.990;18.688;2023-03-02T04:30:20;101144.09;;;4.31;82.62
75298;BME280;63896;45.990;18.688;2023-03-02T04:33:24;101138.78;;;4.23;81.85
75298;BME280;63896;45.990;18.688;2023-03-02T04:36:29;101142.38;;;4.22;82.54
75298;BME280;63896;45.990;18.688;2023-03-02T04:39:36;101146.53;;;4.07;82.59
75298;BME280;63896;45.990;18.688;2023-03-02T04:42:39;101146.91;;;4.12;82.45
75298;BME280;63896;45.990;18.688;2023-03-02T04:45:42;101143.28;;;3.88;82.53
75298;BME280;63896;45.990;18.688;2023-03-02T04:48:44;101138.63;;;3.81;82.91
75298;BME280;63896;45.990;18.688;2023-03-02T04:51:49;101140.00;;;3.86;82.90
75298;BME280;63896;45.990;18.688;2023-03-02T04:54:52;101134.34;;;3.80;83.96
75298;BME280;63896;45.990;18.688;2023-03-02T04:57:55;101134.66;;;3.77;84.97
75298;BME280;63896;45.990;18.688;2023-03-02T05:00:58;101131.53;;;3.74;86.07
75298;BME280;63896;45.990;18.688;2023-03-02T05:04:04;101134.16;;;3.74;86.11
75298;BME280;63896;45.990;18.688;2023-03-02T05:07:07;101130.53;;;3.75;85.72
75298;BME280;63896;45.990;18.688;2023-03-02T05:10:14;101143.50;;;3.76;85.87
75298;BME280;63896;45.990;18.688;2023-03-02T05:13:18;101142.31;;;3.71;86.25
75298;BME280;63896;45.990;18.688;2023-03-02T05:16:22;101146.97;;;3.77;85.35
75298;BME280;63896;45.990;18.688;2023-03-02T05:19:25;101145.16;;;3.77;85.05
75298;BME280;63896;45.990;18.688;2023-03-02T05:22:28;101153.34;;;3.57;86.00
75298;BME280;63896;45.990;18.688;2023-03-02T05:25:33;101159.41;;;3.40;86.06
75298;BME280;63896;45.990;18.688;2023-03-02T05:28:37;101161.44;;;3.46;87.15
75298;BME280;63896;45.990;18.688;2023-03-02T05:31:42;101163.44;;;3.52;86.84
75298;BME280;63896;45.990;18.688;2023-03-02T05:34:45;101165.94;;;3.35;86.31
75298;BME280;63896;45.990;18.688;2023-03-02T05:37:48;101166.97;;;3.43;87.14
75298;BME280;63896;45.990;18.688;2023-03-02T05:40:52;101167.94;;;3.42;87.73
75298;BME280;63896;45.990;18.688;2023-03-02T05:43:55;101172.16;;;3.34;87.92
75298;BME280;63896;45.990;18.688;2023-03-02T05:46:58;101178.66;;;3.48;87.78
75298;BME280;63896;45.990;18.688;2023-03-02T05:50:01;101183.78;;;3.50;87.52
75298;BME280;63896;45.990;18.688;2023-03-02T05:53:04;101182.84;;;3.41;88.12
75298;BME280;63896;45.990;18.688;2023-03-02T05:56:07;101188.94;;;3.42;87.81
75298;BME280;63896;45.990;18.688;2023-03-02T05:59:10;101185.91;;;3.36;87.52
75298;BME280;63896;45.990;18.688;2023-03-02T06:02:13;101191.75;;;3.30;88.42
75298;BME280;63896;45.990;18.688;2023-03-02T06:05:18;101183.28;;;3.36;87.08
75298;BME280;63896;45.990;18.688;2023-03-02T06:08:21;101186.38;;;3.32;87.13
75298;BME280;63896;45.990;18.688;2023-03-02T06:11:24;101192.06;;;3.27;87.77
75298;BME280;63896;45.990;18.688;2023-03-02T06:14:27;101191.25;;;3.27;87.46
75298;BME280;63896;45.990;18.688;2023-03-02T06:17:30;101195.16;;;3.13;86.88
75298;BME280;63896;45.990;18.688;2023-03-02T06:20:33;101194.97;;;3.24;87.49
75298;BME280;63896;45.990;18.688;2023-03-02T06:23:35;101198.28;;;3.26;87.15
75298;BME280;63896;45.990;18.688;2023-03-02T06:26:38;101196.25;;;3.20;86.47
75298;BME280;63896;45.990;18.688;2023-03-02T06:29:41;101195.44;;;3.20;86.85
75298;BME280;63896;45.990;18.688;2023-03-02T06:32:44;101199.56;;;3.13;87.44
75298;BME280;63896;45.990;18.688;2023-03-02T06:35:48;101202.66;;;3.08;87.60
75298;BME280;63896;45.990;18.688;2023-03-02T06:38:52;101198.47;;;3.15;87.04
75298;BME280;63896;45.990;18.688;2023-03-02T06:41:55;101200.19;;;3.24;86.65
75298;BME280;63896;45.990;18.688;2023-03-02T06:44:58;101191.16;;;3.19;86.17
75298;BME280;63896;45.990;18.688;2023-03-02T06:48:02;101203.19;;;3.12;86.35
75298;BME280;63896;45.990;18.688;2023-03-02T06:51:05;101208.28;;;3.13;86.17
75298;BME280;63896;45.990;18.688;2023-03-02T06:54:10;101202.47;;;3.19;86.36
75298;BME280;63896;45.990;18.688;2023-03-02T06:57:13;101204.91;;;3.21;85.90
75298;BME280;63896;45.990;18.688;2023-03-02T07:00:17;101205.66;;;3.13;85.97
75298;BME280;63896;45.990;18.688;2023-03-02T07:03:30;101207.06;;;3.08;86.49
75298;BME280;63896;45.990;18.688;2023-03-02T07:06:34;101207.41;;;3.22;86.66
75298;BME280;63896;45.990;18.688;2023-03-02T07:09:37;101206.81;;;3.28;86.44
75298;BME280;63896;45.990;18.688;2023-03-02T07:12:47;101203.75;;;3.33;85.97
75298;BME280;63896;45.990;18.688;2023-03-02T07:15:51;101208.47;;;3.29;86.35
75298;BME280;63896;45.990;18.688;2023-03-02T07:18:55;101209.41;;;3.11;86.24
75298;BME280;63896;45.990;18.688;2023-03-02T07:21:58;101209.38;;;3.20;87.19
75298;BME280;63896;45.990;18.688;2023-03-02T07:25:01;101208.47;;;3.29;86.71
75298;BME280;63896;45.990;18.688;2023-03-02T07:28:05;101216.94;;;3.23;86.92
75298;BME280;63896;45.990;18.688;2023-03-02T07:31:47;101212.16;;;3.36;85.92
75298;BME280;63896;45.990;18.688;2023-03-02T07:34:55;101218.38;;;3.35;86.25
75298;BME280;63896;45.990;18.688;2023-03-02T07:37:59;101218.22;;;3.37;85.86
75298;BME280;63896;45.990;18.688;2023-03-02T07:41:07;101220.84;;;3.37;86.80
75298;BME280;63896;45.990;18.688;2023-03-02T07:44:10;101218.53;;;3.34;85.93
75298;BME280;63896;45.990;18.688;2023-03-02T07:47:13;101224.16;;;3.39;86.46
75298;BME280;63896;45.990;18.688;2023-03-02T07:50:16;101223.94;;;3.50;86.62
75298;BME280;63896;45.990;18.688;2023-03-02T07:53:19;101228.97;;;3.61;85.71
75298;BME280;63896;45.990;18.688;2023-03-02T07:56:22;101232.78;;;3.67;85.39
75298;BME280;63896;45.990;18.688;2023-03-02T07:59:25;101221.41;;;3.76;84.72
75298;BME280;63896;45.990;18.688;2023-03-02T08:02:30;101221.47;;;3.49;84.14
75298;BME280;63896;45.990;18.688;2023-03-02T08:05:35;101230.66;;;3.35;84.09
75298;BME280;63896;45.990;18.688;2023-03-02T08:08:38;101227.63;;;3.40;84.26
75298;BME280;63896;45.990;18.688;2023-03-02T08:11:41;101227.66;;;3.48;83.98
75298;BME280;63896;45.990;18.688;2023-03-02T08:14:43;101233.31;;;3.53;83.90
75298;BME280;63896;45.990;18.688;2023-03-02T08:17:49;101235.63;;;3.38;84.20
75298;BME280;63896;45.990;18.688;2023-03-02T08:20:53;101235.09;;;3.34;84.68
75298;BME280;63896;45.990;18.688;2023-03-02T08:23:56;101234.03;;;3.45;83.30
75298;BME280;63896;45.990;18.688;2023-03-02T08:27:01;101229.94;;;3.43;83.69
75298;BME280;63896;45.990;18.688;2023-03-02T08:30:04;101237.28;;;3.57;83.58
75298;BME280;63896;45.990;18.688;2023-03-02T08:33:08;101229.41;;;3.57;83.19
75298;BME280;63896;45.990;18.688;2023-03-02T08:36:14;101233.09;;;3.64;83.34
75298;BME280;63896;45.990;18.688;2023-03-02T08:39:18;101236.41;;;3.66;82.93
75298;BME280;63896;45.990;18.688;2023-03-02T08:42:23;101241.06;;;3.72;82.94
75298;BME280;63896;45.990;18.688;2023-03-02T08:45:26;101237.28;;;3.57;83.08
75298;BME280;63896;45.990;18.688;2023-03-02T08:48:30;101236.56;;;3.64;84.03
75298;BME280;63896;45.990;18.688;2023-03-02T08:51:33;101236.63;;;3.55;83.79
75298;BME280;63896;45.990;18.688;2023-03-02T08:54:36;101233.09;;;3.46;83.75
75298;BME280;63896;45.990;18.688;2023-03-02T08:57:42;101239.91;;;3.39;83.94
75298;BME280;63896;45.990;18.688;2023-03-02T09:00:45;101235.41;;;3.49;84.07
75298;BME280;63896;45.990;18.688;2023-03-02T09:03:49;101240.91;;;3.28;84.73
75298;BME280;63896;45.990;18.688;2023-03-02T09:06:55;101234.75;;;3.20;85.31
75298;BME280;63896;45.990;18.688;2023-03-02T09:09:59;101240.03;;;3.38;84.40
75298;BME280;63896;45.990;18.688;2023-03-02T09:13:03;101236.25;;;3.22;85.37
75298;BME280;63896;45.990;18.688;2023-03-02T09:16:10;101234.25;;;3.34;86.02
75298;BME280;63896;45.990;18.688;2023-03-02T09:19:16;101235.09;;;3.52;85.97
75298;BME280;63896;45.990;18.688;2023-03-02T09:22:19;101237.06;;;3.68;86.02
75298;BME280;63896;45.990;18.688;2023-03-02T09:25:22;101234.16;;;3.89;85.11
75298;BME280;63896;45.990;18.688;2023-03-02T09:28:26;101245.41;;;3.99;84.52
75298;BME280;63896;45.990;18.688;2023-03-02T09:31:33;101242.34;;;4.03;84.11
75298;BME280;63896;45.990;18.688;2023-03-02T09:34:37;101234.59;;;4.02;84.51
75298;BME280;63896;45.990;18.688;2023-03-02T09:37:40;101237.81;;;4.13;84.54
75298;BME280;63896;45.990;18.688;2023-03-02T09:44:40;101242.75;;;4.34;84.57
75298;BME280;63896;45.990;18.688;2023-03-02T09:54:22;101232.69;;;4.29;85.60
75298;BME280;63896;45.990;18.688;2023-03-02T09:57:36;101232.50;;;4.23;85.50
75298;BME280;63896;45.990;18.688;2023-03-02T10:00:48;101231.72;;;4.30;84.81
75298;BME280;63896;45.990;18.688;2023-03-02T10:04:04;101228.66;;;4.17;85.36
75298;BME280;63896;45.990;18.688;2023-03-02T10:07:12;101233.91;;;4.35;85.20
75298;BME280;63896;45.990;18.688;2023-03-02T10:10:39;101227.91;;;4.25;86.33
75298;BME280;63896;45.990;18.688;2023-03-02T10:13:53;101233.41;;;4.14;86.06
75298;BME280;63896;45.990;18.688;2023-03-02T10:20:36;101234.78;;;4.00;86.97
75298;BME280;63896;45.990;18.688;2023-03-02T10:23:45;101241.44;;;4.12;86.64
75298;BME280;63896;45.990;18.688;2023-03-02T10:26:58;101235.13;;;4.23;87.68
75298;BME280;63896;45.990;18.688;2023-03-02T10:30:24;101239.69;;;4.39;88.29
75298;BME280;63896;45.990;18.688;2023-03-02T10:33:32;101225.56;;;4.40;89.11
75298;BME280;63896;45.990;18.688;2023-03-02T10:36:43;101219.19;;;4.42;88.76
75298;BME280;63896;45.990;18.688;2023-03-02T10:39:58;101228.72;;;4.69;89.50
75298;BME280;63896;45.990;18.688;2023-03-02T10:43:03;101222.84;;;4.83;89.17
75298;BME280;63896;45.990;18.688;2023-03-02T10:46:11;101225.06;;;4.96;87.74
75298;BME280;63896;45.990;18.688;2023-03-02T10:49:32;101221.94;;;4.92;88.72
75298;BME280;63896;45.990;18.688;2023-03-02T10:52:48;101220.41;;;4.56;88.07
75298;BME280;63896;45.990;18.688;2023-03-02T10:56:29;101227.94;;;4.51;86.82
75298;BME280;63896;45.990;18.688;2023-03-02T10:59:46;101218.78;;;4.55;87.57
75298;BME280;63896;45.990;18.688;2023-03-02T11:03:19;101217.59;;;4.83;87.48
75298;BME280;63896;45.990;18.688;2023-03-02T11:06:22;101207.38;;;5.06;86.79
75298;BME280;63896;45.990;18.688;2023-03-02T11:09:42;101200.47;;;5.05;86.53
75298;BME280;63896;45.990;18.688;2023-03-02T11:16:30;101201.56;;;5.36;86.71
75298;BME280;63896;45.990;18.688;2023-03-02T11:19:37;101204.75;;;5.56;85.43
75298;BME280;63896;45.990;18.688;2023-03-02T11:22:51;101201.50;;;5.20;86.39
75298;BME280;63896;45.990;18.688;2023-03-02T11:26:13;101192.41;;;5.48;85.41
75298;BME280;63896;45.990;18.688;2023-03-02T11:32:50;101194.22;;;5.72;84.28
75298;BME280;63896;45.990;18.688;2023-03-02T11:36:05;101197.03;;;5.79;85.28
75298;BME280;63896;45.990;18.688;2023-03-02T11:43:11;101191.44;;;5.73;88.33
75298;BME280;63896;45.990;18.688;2023-03-02T11:46:22;101188.47;;;5.76;87.09
75298;BME280;63896;45.990;18.688;2023-03-02T11:53:38;101177.13;;;5.84;86.32
75298;BME280;63896;45.990;18.688;2023-03-02T11:56:49;101178.59;;;5.79;87.33
75298;BME280;63896;45.990;18.688;2023-03-02T11:59:53;101180.84;;;5.41;86.98
75298;BME280;63896;45.990;18.688;2023-03-02T12:02:58;101186.31;;;5.72;87.89
75298;BME280;63896;45.990;18.688;2023-03-02T12:09:28;101179.75;;;5.84;87.51
75298;BME280;63896;45.990;18.688;2023-03-02T12:12:41;101170.91;;;6.01;86.51
75298;BME280;63896;45.990;18.688;2023-03-02T12:15:48;101171.75;;;6.02;86.25
75298;BME280;63896;45.990;18.688;2023-03-02T12:18:54;101167.09;;;6.20;86.04
75298;BME280;63896;45.990;18.688;2023-03-02T12:22:04;101176.19;;;5.93;85.80
75298;BME280;63896;45.990;18.688;2023-03-02T12:28:39;101164.97;;;6.15;86.11
75298;BME280;63896;45.990;18.688;2023-03-02T12:31:49;101170.56;;;6.20;86.39
75298;BME280;63896;45.990;18.688;2023-03-02T12:45:10;101167.72;;;6.46;84.26
75298;BME280;63896;45.990;18.688;2023-03-02T12:49:04;101158.16;;;6.45;83.49
75298;BME280;63896;45.990;18.688;2023-03-02T12:52:34;101153.06;;;6.52;83.89
75298;BME280;63896;45.990;18.688;2023-03-02T12:55:38;101151.56;;;6.41;84.06
75298;BME280;63896;45.990;18.688;2023-03-02T12:58:51;101153.94;;;6.20;86.27
75298;BME280;63896;45.990;18.688;2023-03-02T13:05:39;101142.91;;;6.25;85.63
75298;BME280;63896;45.990;18.688;2023-03-02T13:09:23;101137.44;;;6.18;85.64
75298;BME280;63896;45.990;18.688;2023-03-02T13:12:27;101136.16;;;6.14;85.35
75298;BME280;63896;45.990;18.688;2023-03-02T13:15:31;101137.63;;;6.16;86.23
75298;BME280;63896;45.990;18.688;2023-03-02T13:18:36;101135.16;;;6.15;85.44
75298;BME280;63896;45.990;18.688;2023-03-02T13:21:44;101141.78;;;5.87;86.44
75298;BME280;63896;45.990;18.688;2023-03-02T13:24:55;101133.69;;;5.88;87.12
75298;BME280;63896;45.990;18.688;2023-03-02T13:28:01;101128.44;;;5.88;86.78
75298;BME280;63896;45.990;18.688;2023-03-02T13:31:20;101130.53;;;5.76;87.19
75298;BME280;63896;45.990;18.688;2023-03-02T13:34:27;101123.84;;;5.90;87.02
75298;BME280;63896;45.990;18.688;2023-03-02T13:37:37;101113.59;;;6.03;87.13
75298;BME280;63896;45.990;18.688;2023-03-02T13:40:47;101116.09;;;6.05;87.12
75298;BME280;63896;45.990;18.688;2023-03-02T13:43:51;101115.25;;;5.96;87.14
75298;BME280;63896;45.990;18.688;2023-03-02T13:46:54;101112.94;;;6.09;86.61
75298;BME280;63896;45.990;18.688;2023-03-02T13:50:05;101110.16;;;6.03;87.40
75298;BME280;63896;45.990;18.688;2023-03-02T13:53:14;101108.31;;;6.19;87.01
75298;BME280;63896;45.990;18.688;2023-03-02T13:56:17;101106.03;;;6.16;87.01
75298;BME280;63896;45.990;18.688;2023-03-02T13:59:21;101105.34;;;6.14;87.46
75298;BME280;63896;45.990;18.688;2023-03-02T14:02:29;101103.34;;;6.33;88.17
75298;BME280;63896;45.990;18.688;2023-03-02T14:05:32;101090.34;;;6.23;87.70
75298;BME280;63896;45.990;18.688;2023-03-02T14:08:35;101092.34;;;6.29;87.61
75298;BME280;63896;45.990;18.688;2023-03-02T14:11:40;101097.88;;;6.42;86.69
75298;BME280;63896;45.990;18.688;2023-03-02T14:14:44;101090.44;;;6.46;88.07
75298;BME280;63896;45.990;18.688;2023-03-02T14:17:47;101092.28;;;6.37;88.31
75298;BME280;63896;45.990;18.688;2023-03-02T14:20:51;101083.88;;;6.42;87.86
75298;BME280;63896;45.990;18.688;2023-03-02T14:23:55;101081.22;;;6.42;87.68
75298;BME280;63896;45.990;18.688;2023-03-02T14:27:01;101078.94;;;6.39;87.21
75298;BME280;63896;45.990;18.688;2023-03-02T14:30:14;101079.75;;;6.47;86.97
75298;BME280;63896;45.990;18.688;2023-03-02T14:33:21;101079.16;;;6.29;88.16
75298;BME280;63896;45.990;18.688;2023-03-02T14:36:33;101071.06;;;6.31;87.61
75298;BME280;63896;45.990;18.688;2023-03-02T14:39:39;101072.88;;;6.30;88.47
75298;BME280;63896;45.990;18.688;2023-03-02T14:42:42;101069.72;;;6.35;89.14
75298;BME280;63896;45.990;18.688;2023-03-02T14:45:45;101071.38;;;6.36;88.95
75298;BME280;63896;45.990;18.688;2023-03-02T14:48:47;101069.94;;;6.25;89.56
75298;BME280;63896;45.990;18.688;2023-03-02T14:52:05;101066.81;;;6.21;90.19
75298;BME280;63896;45.990;18.688;2023-03-02T14:55:22;101066.66;;;6.15;90.50
75298;BME280;63896;45.990;18.688;2023-03-02T14:58:32;101072.38;;;6.27;90.30
75298;BME280;63896;45.990;18.688;2023-03-02T15:01:36;101066.91;;;6.44;90.38
75298;BME280;63896;45.990;18.688;2023-03-02T15:04:39;101066.06;;;6.52;89.96
75298;BME280;63896;45.990;18.688;2023-03-02T15:07:42;101059.94;;;6.59;89.33
75298;BME280;63896;45.990;18.688;2023-03-02T15:10:46;101063.34;;;6.68;89.53
75298;BME280;63896;45.990;18.688;2023-03-02T15:13:49;101055.00;;;6.56;89.52
75298;BME280;63896;45.990;18.688;2023-03-02T15:16:52;101057.13;;;6.53;90.55
75298;BME280;63896;45.990;18.688;2023-03-02T15:19:55;101064.31;;;6.28;91.58
75298;BME280;63896;45.990;18.688;2023-03-02T15:22:58;101065.78;;;6.31;91.99
75298;BME280;63896;45.990;18.688;2023-03-02T15:26:02;101063.97;;;6.31;93.22
75298;BME280;63896;45.990;18.688;2023-03-02T15:29:06;101061.19;;;6.33;93.54
75298;BME280;63896;45.990;18.688;2023-03-02T15:32:08;101061.22;;;6.16;92.18
75298;BME280;63896;45.990;18.688;2023-03-02T15:35:11;101065.53;;;6.09;93.06
75298;BME280;63896;45.990;18.688;2023-03-02T15:38:14;101072.31;;;5.96;92.97
75298;BME280;63896;45.990;18.688;2023-03-02T15:41:18;101072.63;;;6.01;92.95
75298;BME280;63896;45.990;18.688;2023-03-02T15:44:23;101074.59;;;5.83;94.02
75298;BME280;63896;45.990;18.688;2023-03-02T15:47:26;101072.13;;;5.81;94.69
75298;BME280;63896;45.990;18.688;2023-03-02T15:50:29;101075.44;;;5.91;94.61
75298;BME280;63896;45.990;18.688;2023-03-02T15:53:33;101081.22;;;5.87;93.65
75298;BME280;63896;45.990;18.688;2023-03-02T15:56:39;101084.31;;;5.74;94.50
75298;BME280;63896;45.990;18.688;2023-03-02T15:59:45;101073.13;;;5.72;94.93
75298;BME280;63896;45.990;18.688;2023-03-02T16:02:48;101076.56;;;5.72;94.66
75298;BME280;63896;45.990;18.688;2023-03-02T16:05:51;101075.94;;;5.79;94.47
75298;BME280;63896;45.990;18.688;2023-03-02T16:08:58;101075.25;;;5.76;94.02
75298;BME280;63896;45.990;18.688;2023-03-02T16:12:01;101063.59;;;5.71;95.19
75298;BME280;63896;45.990;18.688;2023-03-02T16:15:04;101073.13;;;5.72;94.20
75298;BME280;63896;45.990;18.688;2023-03-02T16:18:08;101076.41;;;5.50;95.11
75298;BME280;63896;45.990;18.688;2023-03-02T16:21:11;101074.47;;;5.60;94.89
75298;BME280;63896;45.990;18.688;2023-03-02T16:24:15;101081.03;;;5.48;95.89
75298;BME280;63896;45.990;18.688;2023-03-02T16:27:18;101080.38;;;5.46;95.71
75298;BME280;63896;45.990;18.688;2023-03-02T16:30:21;101083.00;;;5.46;96.50
75298;BME280;63896;45.990;18.688;2023-03-02T16:33:25;101084.31;;;5.50;95.87
75298;BME280;63896;45.990;18.688;2023-03-02T16:36:28;101090.56;;;5.49;95.87
75298;BME280;63896;45.990;18.688;2023-03-02T16:39:31;101086.13;;;5.49;96.08
75298;BME280;63896;45.990;18.688;2023-03-02T16:42:34;101082.50;;;5.50;95.59
75298;BME280;63896;45.990;18.688;2023-03-02T16:45:37;101088.94;;;5.56;96.08
75298;BME280;63896;45.990;18.688;2023-03-02T16:48:41;101088.75;;;5.65;94.90
75298;BME280;63896;45.990;18.688;2023-03-02T16:51:44;101088.59;;;5.59;95.89
75298;BME280;63896;45.990;18.688;2023-03-02T16:54:47;101095.00;;;5.56;95.36
75298;BME280;63896;45.990;18.688;2023-03-02T16:57:50;101089.91;;;5.63;95.62
75298;BME280;63896;45.990;18.688;2023-03-02T17:00:54;101088.25;;;5.54;95.49
75298;BME280;63896;45.990;18.688;2023-03-02T17:03:57;101085.28;;;5.49;96.54
75298;BME280;63896;45.990;18.688;2023-03-02T17:07:01;101100.59;;;5.61;96.46
75298;BME280;63896;45.990;18.688;2023-03-02T17:10:19;101096.97;;;5.54;96.40
75298;BME280;63896;45.990;18.688;2023-03-02T17:13:23;101094.00;;;5.57;96.32
75298;BME280;63896;45.990;18.688;2023-03-02T17:16:26;101089.25;;;5.53;96.48